sensor_id;sensor_type;location;lat;lon;timestamp;temperature;humidity
41290;DHT22;36117;46.680;11.154;2022-10-31T00:02:24;17.50;71.90
41290;DHT22;36117;46.680;11.154;2022-10-31T00:04:49;17.50;72.30
41290;DHT22;36117;46.680;11.154;2022-10-31T00:07:15;17.50;72.10
41290;DHT22;36117;46.680;11.154;2022-10-31T00:09:41;17.50;71.90
41290;DHT22;36117;46.680;11.154;2022-10-31T00:12:07;17.60;71.50
41290;DHT22;36117;46.680;11.154;2022-10-31T00:14:32;17.60;72.00
41290;DHT22;36117;46.680;11.154;2022-10-31T00:16:58;17.50;71.60
41290;DHT22;36117;46.680;11.154;2022-10-31T00:19:24;17.40;72.30
41290;DHT22;36117;46.680;11.154;2022-10-31T00:21:51;17.30;72.90
41290;DHT22;36117;46.680;11.154;2022-10-31T00:24:17;17.40;73.10
41290;DHT22;36117;46.680;11.154;2022-10-31T00:26:43;17.40;72.70
41290;DHT22;36117;46.680;11.154;2022-10-31T00:29:09;17.40;72.90
41290;DHT22;36117;46.680;11.154;2022-10-31T00:31:36;17.50;72.50
41290;DHT22;36117;46.680;11.154;2022-10-31T00:34:01;17.50;72.00
41290;DHT22;36117;46.680;11.154;2022-10-31T00:36:28;17.40;72.70
41290;DHT22;36117;46.680;11.154;2022-10-31T00:38:54;17.40;72.40
41290;DHT22;36117;46.680;11.154;2022-10-31T00:41:20;17.20;72.80
41290;DHT22;36117;46.680;11.154;2022-10-31T00:43:46;17.10;73.60
41290;DHT22;36117;46.680;11.154;2022-10-31T00:46:12;16.70;74.40
41290;DHT22;36117;46.680;11.154;2022-10-31T00:48:39;16.70;74.80
41290;DHT22;36117;46.680;11.154;2022-10-31T00:51:05;16.70;74.80
41290;DHT22;36117;46.680;11.154;2022-10-31T00:53:31;16.80;74.20
41290;DHT22;36117;46.680;11.154;2022-10-31T00:55:56;16.90;74.30
41290;DHT22;36117;46.680;11.154;2022-10-31T00:58:22;16.90;73.30
41290;DHT22;36117;46.680;11.154;2022-10-31T01:00:48;17.00;73.20
41290;DHT22;36117;46.680;11.154;2022-10-31T01:03:24;17.10;72.70
41290;DHT22;36117;46.680;11.154;2022-10-31T01:08:27;17.10;72.40
41290;DHT22;36117;46.680;11.154;2022-10-31T01:11:16;16.90;72.30
41290;DHT22;36117;46.680;11.154;2022-10-31T01:13:43;17.00;72.90
41290;DHT22;36117;46.680;11.154;2022-10-31T01:16:11;17.00;72.40
41290;DHT22;36117;46.680;11.154;2022-10-31T01:18:37;17.00;73.00
41290;DHT22;36117;46.680;11.154;2022-10-31T01:21:05;17.10;72.50
41290;DHT22;36117;46.680;11.154;2022-10-31T01:23:32;17.00;72.30
41290;DHT22;36117;46.680;11.154;2022-10-31T01:26:06;16.90;72.40
41290;DHT22;36117;46.680;11.154;2022-10-31T01:28:34;17.00;72.50
41290;DHT22;36117;46.680;11.154;2022-10-31T01:31:07;16.80;73.00
41290;DHT22;36117;46.680;11.154;2022-10-31T01:33:34;16.80;72.60
41290;DHT22;36117;46.680;11.154;2022-10-31T01:36:00;16.90;72.60
41290;DHT22;36117;46.680;11.154;2022-10-31T01:38:27;16.90;72.10
41290;DHT22;36117;46.680;11.154;2022-10-31T01:40:52;17.10;72.20
41290;DHT22;36117;46.680;11.154;2022-10-31T01:43:19;17.10;71.60
41290;DHT22;36117;46.680;11.154;2022-10-31T01:45:52;17.10;71.70
41290;DHT22;36117;46.680;11.154;2022-10-31T01:48:21;16.90;72.00
41290;DHT22;36117;46.680;11.154;2022-10-31T01:50:51;16.70;72.70
41290;DHT22;36117;46.680;11.154;2022-10-31T01:53:19;16.60;73.30
41290;DHT22;36117;46.680;11.154;2022-10-31T01:55:46;16.60;73.60
41290;DHT22;36117;46.680;11.154;2022-10-31T01:58:16;16.70;73.50
41290;DHT22;36117;46.680;11.154;2022-10-31T02:00:46;16.80;72.70
41290;DHT22;36117;46.680;11.154;2022-10-31T02:03:12;16.80;72.50
41290;DHT22;36117;46.680;11.154;2022-10-31T02:05:38;16.60;73.00
41290;DHT22;36117;46.680;11.154;2022-10-31T02:08:05;16.60;73.00
41290;DHT22;36117;46.680;11.154;2022-10-31T02:10:34;16.60;72.80
41290;DHT22;36117;46.680;11.154;2022-10-31T02:13:03;16.80;72.70
41290;DHT22;36117;46.680;11.154;2022-10-31T02:15:31;16.80;72.20
41290;DHT22;36117;46.680;11.154;2022-10-31T02:17:57;16.80;72.00
41290;DHT22;36117;46.680;11.154;2022-10-31T02:20:27;16.60;72.20
41290;DHT22;36117;46.680;11.154;2022-10-31T02:25:42;16.40;73.20
41290;DHT22;36117;46.680;11.154;2022-10-31T02:31:05;16.30;73.40
41290;DHT22;36117;46.680;11.154;2022-10-31T02:36:52;16.50;73.10
41290;DHT22;36117;46.680;11.154;2022-10-31T02:42:01;16.60;72.50
41290;DHT22;36117;46.680;11.154;2022-10-31T02:47:21;16.70;72.30
41290;DHT22;36117;46.680;11.154;2022-10-31T02:49:59;16.60;72.40
41290;DHT22;36117;46.680;11.154;2022-10-31T02:52:28;16.70;72.50
41290;DHT22;36117;46.680;11.154;2022-10-31T02:54:54;16.70;72.40
41290;DHT22;36117;46.680;11.154;2022-10-31T02:57:32;16.80;72.00
41290;DHT22;36117;46.680;11.154;2022-10-31T03:00:03;16.70;71.70
41290;DHT22;36117;46.680;11.154;2022-10-31T03:08:16;16.40;73.60
41290;DHT22;36117;46.680;11.154;2022-10-31T03:10:49;16.40;73.60
41290;DHT22;36117;46.680;11.154;2022-10-31T03:13:30;16.40;74.60
41290;DHT22;36117;46.680;11.154;2022-10-31T03:18:58;16.30;74.20
41290;DHT22;36117;46.680;11.154;2022-10-31T03:21:53;16.20;74.50
41290;DHT22;36117;46.680;11.154;2022-10-31T03:24:23;16.20;74.70
41290;DHT22;36117;46.680;11.154;2022-10-31T03:26:53;16.10;74.70
41290;DHT22;36117;46.680;11.154;2022-10-31T03:29:23;15.90;74.30
41290;DHT22;36117;46.680;11.154;2022-10-31T03:31:55;16.00;75.20
41290;DHT22;36117;46.680;11.154;2022-10-31T03:34:22;15.80;75.50
41290;DHT22;36117;46.680;11.154;2022-10-31T03:36:51;15.80;75.50
41290;DHT22;36117;46.680;11.154;2022-10-31T03:39:20;15.90;75.10
41290;DHT22;36117;46.680;11.154;2022-10-31T03:41:54;15.80;74.90
41290;DHT22;36117;46.680;11.154;2022-10-31T03:44:22;15.80;74.80
41290;DHT22;36117;46.680;11.154;2022-10-31T03:46:49;16.00;74.20
41290;DHT22;36117;46.680;11.154;2022-10-31T03:49:15;16.20;73.50
41290;DHT22;36117;46.680;11.154;2022-10-31T03:51:46;16.20;73.90
41290;DHT22;36117;46.680;11.154;2022-10-31T03:54:27;15.80;74.80
41290;DHT22;36117;46.680;11.154;2022-10-31T03:57:00;15.80;75.80
41290;DHT22;36117;46.680;11.154;2022-10-31T03:59:36;15.90;75.50
41290;DHT22;36117;46.680;11.154;2022-10-31T04:02:06;15.90;75.10
41290;DHT22;36117;46.680;11.154;2022-10-31T04:04:34;16.00;74.70
41290;DHT22;36117;46.680;11.154;2022-10-31T04:07:01;16.10;74.70
41290;DHT22;36117;46.680;11.154;2022-10-31T04:09:31;16.20;74.60
41290;DHT22;36117;46.680;11.154;2022-10-31T04:11:59;16.00;74.40
41290;DHT22;36117;46.680;11.154;2022-10-31T04:14:27;15.70;75.50
41290;DHT22;36117;46.680;11.154;2022-10-31T04:16:55;15.50;77.00
41290;DHT22;36117;46.680;11.154;2022-10-31T04:19:21;15.70;76.30
41290;DHT22;36117;46.680;11.154;2022-10-31T04:21:47;15.90;75.70
41290;DHT22;36117;46.680;11.154;2022-10-31T04:24:12;16.00;74.70
41290;DHT22;36117;46.680;11.154;2022-10-31T04:26:38;16.00;74.80
41290;DHT22;36117;46.680;11.154;2022-10-31T04:29:04;16.10;74.70
41290;DHT22;36117;46.680;11.154;2022-10-31T04:31:30;16.00;74.80
41290;DHT22;36117;46.680;11.154;2022-10-31T04:33:55;16.00;74.40
41290;DHT22;36117;46.680;11.154;2022-10-31T04:36:21;15.90;75.10
41290;DHT22;36117;46.680;11.154;2022-10-31T04:38:47;15.80;75.00
41290;DHT22;36117;46.680;11.154;2022-10-31T04:41:13;15.70;75.90
41290;DHT22;36117;46.680;11.154;2022-10-31T04:43:38;15.70;76.10
41290;DHT22;36117;46.680;11.154;2022-10-31T04:46:04;15.70;75.50
41290;DHT22;36117;46.680;11.154;2022-10-31T04:48:30;15.80;75.30
41290;DHT22;36117;46.680;11.154;2022-10-31T04:51:00;15.90;75.20
41290;DHT22;36117;46.680;11.154;2022-10-31T04:53:26;15.80;75.30
41290;DHT22;36117;46.680;11.154;2022-10-31T04:55:51;15.70;75.60
41290;DHT22;36117;46.680;11.154;2022-10-31T04:58:17;15.70;75.50
41290;DHT22;36117;46.680;11.154;2022-10-31T05:00:43;15.60;75.60
41290;DHT22;36117;46.680;11.154;2022-10-31T05:03:09;15.60;75.40
41290;DHT22;36117;46.680;11.154;2022-10-31T05:05:34;15.80;75.30
41290;DHT22;36117;46.680;11.154;2022-10-31T05:08:00;15.80;75.00
41290;DHT22;36117;46.680;11.154;2022-10-31T05:10:28;15.80;74.80
41290;DHT22;36117;46.680;11.154;2022-10-31T05:13:00;15.80;74.80
41290;DHT22;36117;46.680;11.154;2022-10-31T05:15:26;15.80;75.30
41290;DHT22;36117;46.680;11.154;2022-10-31T05:17:53;15.80;75.10
41290;DHT22;36117;46.680;11.154;2022-10-31T05:20:22;15.70;75.10
41290;DHT22;36117;46.680;11.154;2022-10-31T05:22:50;15.70;75.50
41290;DHT22;36117;46.680;11.154;2022-10-31T05:25:17;15.60;75.30
41290;DHT22;36117;46.680;11.154;2022-10-31T05:27:45;15.50;75.60
41290;DHT22;36117;46.680;11.154;2022-10-31T05:30:13;15.50;75.20
41290;DHT22;36117;46.680;11.154;2022-10-31T05:32:45;15.30;75.60
41290;DHT22;36117;46.680;11.154;2022-10-31T05:35:17;15.40;76.50
41290;DHT22;36117;46.680;11.154;2022-10-31T05:37:44;15.30;76.10
41290;DHT22;36117;46.680;11.154;2022-10-31T05:40:11;15.40;75.80
41290;DHT22;36117;46.680;11.154;2022-10-31T05:42:39;15.50;75.10
41290;DHT22;36117;46.680;11.154;2022-10-31T05:45:07;15.60;75.00
41290;DHT22;36117;46.680;11.154;2022-10-31T05:47:33;15.70;75.10
41290;DHT22;36117;46.680;11.154;2022-10-31T05:49:58;15.60;74.90
41290;DHT22;36117;46.680;11.154;2022-10-31T05:52:24;15.60;75.40
41290;DHT22;36117;46.680;11.154;2022-10-31T05:54:50;15.70;75.90
41290;DHT22;36117;46.680;11.154;2022-10-31T05:57:16;15.70;75.30
41290;DHT22;36117;46.680;11.154;2022-10-31T05:59:41;15.60;75.90
41290;DHT22;36117;46.680;11.154;2022-10-31T06:02:07;15.40;76.20
41290;DHT22;36117;46.680;11.154;2022-10-31T06:04:33;15.30;77.00
41290;DHT22;36117;46.680;11.154;2022-10-31T06:06:59;15.40;76.80
41290;DHT22;36117;46.680;11.154;2022-10-31T06:09:25;15.50;76.20
41290;DHT22;36117;46.680;11.154;2022-10-31T06:11:51;15.50;76.50
41290;DHT22;36117;46.680;11.154;2022-10-31T06:14:16;15.30;76.20
41290;DHT22;36117;46.680;11.154;2022-10-31T06:16:42;15.20;76.70
41290;DHT22;36117;46.680;11.154;2022-10-31T06:19:08;15.20;77.40
41290;DHT22;36117;46.680;11.154;2022-10-31T06:21:34;15.30;76.80
41290;DHT22;36117;46.680;11.154;2022-10-31T06:23:59;15.20;76.30
41290;DHT22;36117;46.680;11.154;2022-10-31T06:26:25;15.20;76.40
41290;DHT22;36117;46.680;11.154;2022-10-31T06:28:51;15.50;76.00
41290;DHT22;36117;46.680;11.154;2022-10-31T06:31:17;15.60;75.30
41290;DHT22;36117;46.680;11.154;2022-10-31T06:33:42;15.70;75.10
41290;DHT22;36117;46.680;11.154;2022-10-31T06:36:09;15.80;74.70
41290;DHT22;36117;46.680;11.154;2022-10-31T06:38:35;15.90;74.10
41290;DHT22;36117;46.680;11.154;2022-10-31T06:41:05;15.90;74.00
41290;DHT22;36117;46.680;11.154;2022-10-31T06:43:31;16.00;74.30
41290;DHT22;36117;46.680;11.154;2022-10-31T06:46:04;16.20;73.30
41290;DHT22;36117;46.680;11.154;2022-10-31T06:48:31;16.20;72.70
41290;DHT22;36117;46.680;11.154;2022-10-31T06:51:00;16.20;72.80
41290;DHT22;36117;46.680;11.154;2022-10-31T06:53:28;16.30;73.00
41290;DHT22;36117;46.680;11.154;2022-10-31T06:55:55;16.30;72.90
41290;DHT22;36117;46.680;11.154;2022-10-31T06:58:21;16.20;73.60
41290;DHT22;36117;46.680;11.154;2022-10-31T07:00:47;16.10;73.20
41290;DHT22;36117;46.680;11.154;2022-10-31T07:03:14;16.10;73.50
41290;DHT22;36117;46.680;11.154;2022-10-31T07:05:45;16.00;73.10
41290;DHT22;36117;46.680;11.154;2022-10-31T07:08:12;16.20;73.40
41290;DHT22;36117;46.680;11.154;2022-10-31T07:10:40;16.30;72.90
41290;DHT22;36117;46.680;11.154;2022-10-31T07:13:12;16.30;72.60
41290;DHT22;36117;46.680;11.154;2022-10-31T07:15:40;16.40;72.30
41290;DHT22;36117;46.680;11.154;2022-10-31T07:18:08;16.60;72.80
41290;DHT22;36117;46.680;11.154;2022-10-31T07:20:34;17.00;71.70
41290;DHT22;36117;46.680;11.154;2022-10-31T07:22:59;17.80;69.50
41290;DHT22;36117;46.680;11.154;2022-10-31T07:25:26;18.60;68.10
41290;DHT22;36117;46.680;11.154;2022-10-31T07:27:52;19.50;65.10
41290;DHT22;36117;46.680;11.154;2022-10-31T07:30:18;20.30;63.20
41290;DHT22;36117;46.680;11.154;2022-10-31T07:32:47;20.60;61.90
41290;DHT22;36117;46.680;11.154;2022-10-31T07:35:15;21.40;59.90
41290;DHT22;36117;46.680;11.154;2022-10-31T07:37:41;21.80;58.50
41290;DHT22;36117;46.680;11.154;2022-10-31T07:40:08;22.60;56.20
41290;DHT22;36117;46.680;11.154;2022-10-31T07:42:38;23.00;55.10
41290;DHT22;36117;46.680;11.154;2022-10-31T07:45:06;23.30;54.60
41290;DHT22;36117;46.680;11.154;2022-10-31T07:50:05;24.20;51.80
41290;DHT22;36117;46.680;11.154;2022-10-31T07:52:31;24.50;50.30
41290;DHT22;36117;46.680;11.154;2022-10-31T07:54:57;24.80;48.90
41290;DHT22;36117;46.680;11.154;2022-10-31T07:57:23;25.10;48.60
41290;DHT22;36117;46.680;11.154;2022-10-31T07:59:48;25.40;48.10
41290;DHT22;36117;46.680;11.154;2022-10-31T08:02:14;25.70;47.10
41290;DHT22;36117;46.680;11.154;2022-10-31T08:04:40;25.80;47.00
41290;DHT22;36117;46.680;11.154;2022-10-31T08:07:05;26.00;46.60
41290;DHT22;36117;46.680;11.154;2022-10-31T08:09:31;26.20;44.60
41290;DHT22;36117;46.680;11.154;2022-10-31T08:11:57;26.10;45.10
41290;DHT22;36117;46.680;11.154;2022-10-31T08:14:23;26.50;44.20
41290;DHT22;36117;46.680;11.154;2022-10-31T08:16:48;26.80;43.70
41290;DHT22;36117;46.680;11.154;2022-10-31T08:19:14;26.90;43.10
41290;DHT22;36117;46.680;11.154;2022-10-31T08:21:40;27.20;42.80
41290;DHT22;36117;46.680;11.154;2022-10-31T08:24:06;27.50;42.30
41290;DHT22;36117;46.680;11.154;2022-10-31T08:26:32;28.10;41.30
41290;DHT22;36117;46.680;11.154;2022-10-31T08:28:58;28.60;40.70
41290;DHT22;36117;46.680;11.154;2022-10-31T08:31:23;28.80;39.90
41290;DHT22;36117;46.680;11.154;2022-10-31T08:33:52;29.10;39.10
41290;DHT22;36117;46.680;11.154;2022-10-31T08:36:21;28.70;39.10
41290;DHT22;36117;46.680;11.154;2022-10-31T08:38:47;28.80;39.50
41290;DHT22;36117;46.680;11.154;2022-10-31T08:41:13;29.10;39.30
41290;DHT22;36117;46.680;11.154;2022-10-31T08:43:39;29.50;38.50
41290;DHT22;36117;46.680;11.154;2022-10-31T08:46:05;30.00;38.10
41290;DHT22;36117;46.680;11.154;2022-10-31T08:48:31;30.60;36.90
41290;DHT22;36117;46.680;11.154;2022-10-31T08:50:58;31.00;36.30
41290;DHT22;36117;46.680;11.154;2022-10-31T08:53:25;30.80;36.60
41290;DHT22;36117;46.680;11.154;2022-10-31T08:55:50;31.30;35.80
41290;DHT22;36117;46.680;11.154;2022-10-31T08:58:19;31.60;36.00
41290;DHT22;36117;46.680;11.154;2022-10-31T09:00:46;32.00;35.50
41290;DHT22;36117;46.680;11.154;2022-10-31T09:03:19;32.20;34.90
41290;DHT22;36117;46.680;11.154;2022-10-31T09:05:45;31.80;35.30
41290;DHT22;36117;46.680;11.154;2022-10-31T09:08:12;30.90;35.90
41290;DHT22;36117;46.680;11.154;2022-10-31T09:10:38;31.70;35.90
41290;DHT22;36117;46.680;11.154;2022-10-31T09:13:10;31.90;35.80
41290;DHT22;36117;46.680;11.154;2022-10-31T09:15:38;32.20;35.50
41290;DHT22;36117;46.680;11.154;2022-10-31T09:18:05;32.80;34.50
41290;DHT22;36117;46.680;11.154;2022-10-31T09:20:32;33.70;33.90
41290;DHT22;36117;46.680;11.154;2022-10-31T09:23:04;34.40;33.30
41290;DHT22;36117;46.680;11.154;2022-10-31T09:25:31;34.80;32.90
41290;DHT22;36117;46.680;11.154;2022-10-31T09:27:59;35.30;32.00
41290;DHT22;36117;46.680;11.154;2022-10-31T09:30:26;35.50;31.60
41290;DHT22;36117;46.680;11.154;2022-10-31T09:33:04;35.10;31.60
41290;DHT22;36117;46.680;11.154;2022-10-31T09:35:30;34.40;32.10
41290;DHT22;36117;46.680;11.154;2022-10-31T09:37:57;33.30;32.60
41290;DHT22;36117;46.680;11.154;2022-10-31T09:40:39;33.20;33.20
41290;DHT22;36117;46.680;11.154;2022-10-31T09:49:07;33.00;33.00
41290;DHT22;36117;46.680;11.154;2022-10-31T09:51:42;33.50;32.80
41290;DHT22;36117;46.680;11.154;2022-10-31T09:56:40;34.00;32.50
41290;DHT22;36117;46.680;11.154;2022-10-31T09:59:34;34.30;32.00
41290;DHT22;36117;46.680;11.154;2022-10-31T10:02:21;34.70;32.00
41290;DHT22;36117;46.680;11.154;2022-10-31T10:04:59;34.10;31.80
41290;DHT22;36117;46.680;11.154;2022-10-31T10:07:41;34.20;32.60
41290;DHT22;36117;46.680;11.154;2022-10-31T10:18:50;33.70;32.40
41290;DHT22;36117;46.680;11.154;2022-10-31T10:29:47;32.80;32.30
41290;DHT22;36117;46.680;11.154;2022-10-31T10:32:28;33.20;32.00
41290;DHT22;36117;46.680;11.154;2022-10-31T10:37:46;33.30;31.00
41290;DHT22;36117;46.680;11.154;2022-10-31T10:40:21;34.00;31.00
41290;DHT22;36117;46.680;11.154;2022-10-31T10:43:00;34.50;30.60
41290;DHT22;36117;46.680;11.154;2022-10-31T10:48:46;35.10;30.40
41290;DHT22;36117;46.680;11.154;2022-10-31T10:51:23;34.80;30.80
41290;DHT22;36117;46.680;11.154;2022-10-31T10:59:11;34.40;30.60
41290;DHT22;36117;46.680;11.154;2022-10-31T11:01:39;32.50;31.20
41290;DHT22;36117;46.680;11.154;2022-10-31T11:04:24;30.40;33.70
41290;DHT22;36117;46.680;11.154;2022-10-31T11:07:07;30.30;33.90
41290;DHT22;36117;46.680;11.154;2022-10-31T11:09:34;30.20;34.60
41290;DHT22;36117;46.680;11.154;2022-10-31T11:12:07;30.20;35.00
41290;DHT22;36117;46.680;11.154;2022-10-31T11:14:46;30.70;34.90
41290;DHT22;36117;46.680;11.154;2022-10-31T11:17:27;30.20;34.10
41290;DHT22;36117;46.680;11.154;2022-10-31T11:22:29;29.10;36.00
41290;DHT22;36117;46.680;11.154;2022-10-31T11:24:55;29.30;35.90
41290;DHT22;36117;46.680;11.154;2022-10-31T11:27:23;29.20;36.20
41290;DHT22;36117;46.680;11.154;2022-10-31T11:29:50;28.70;36.30
41290;DHT22;36117;46.680;11.154;2022-10-31T11:32:21;28.70;36.30
41290;DHT22;36117;46.680;11.154;2022-10-31T11:34:52;28.40;37.10
41290;DHT22;36117;46.680;11.154;2022-10-31T11:37:26;28.30;37.00
41290;DHT22;36117;46.680;11.154;2022-10-31T11:39:55;27.70;37.60
41290;DHT22;36117;46.680;11.154;2022-10-31T11:42:26;28.10;37.90
41290;DHT22;36117;46.680;11.154;2022-10-31T11:44:53;28.00;37.80
41290;DHT22;36117;46.680;11.154;2022-10-31T11:47:43;27.60;38.30
41290;DHT22;36117;46.680;11.154;2022-10-31T11:50:19;27.80;38.40
41290;DHT22;36117;46.680;11.154;2022-10-31T11:52:46;28.20;38.90
41290;DHT22;36117;46.680;11.154;2022-10-31T11:57:51;28.50;38.60
41290;DHT22;36117;46.680;11.154;2022-10-31T12:00:32;28.00;38.40
41290;DHT22;36117;46.680;11.154;2022-10-31T12:08:39;27.80;39.50
41290;DHT22;36117;46.680;11.154;2022-10-31T12:27:45;28.30;37.30
41290;DHT22;36117;46.680;11.154;2022-10-31T12:30:30;27.90;37.60
41290;DHT22;36117;46.680;11.154;2022-10-31T12:33:16;27.70;38.10
41290;DHT22;36117;46.680;11.154;2022-10-31T12:45:58;26.80;39.60
41290;DHT22;36117;46.680;11.154;2022-10-31T12:51:31;27.00;40.10
41290;DHT22;36117;46.680;11.154;2022-10-31T12:56:35;26.00;41.50
41290;DHT22;36117;46.680;11.154;2022-10-31T13:02:13;25.70;42.70
41290;DHT22;36117;46.680;11.154;2022-10-31T13:05:02;25.30;43.20
41290;DHT22;36117;46.680;11.154;2022-10-31T13:07:48;25.50;43.20
41290;DHT22;36117;46.680;11.154;2022-10-31T13:10:19;26.00;43.00
41290;DHT22;36117;46.680;11.154;2022-10-31T13:12:46;26.10;43.00
41290;DHT22;36117;46.680;11.154;2022-10-31T13:15:18;26.00;43.20
41290;DHT22;36117;46.680;11.154;2022-10-31T13:17:51;25.70;43.40
41290;DHT22;36117;46.680;11.154;2022-10-31T13:20:24;25.90;44.10
41290;DHT22;36117;46.680;11.154;2022-10-31T13:22:54;25.90;43.90
41290;DHT22;36117;46.680;11.154;2022-10-31T13:28:09;26.10;43.30
41290;DHT22;36117;46.680;11.154;2022-10-31T13:30:40;25.80;43.30
41290;DHT22;36117;46.680;11.154;2022-10-31T13:33:21;25.80;43.70
41290;DHT22;36117;46.680;11.154;2022-10-31T13:46:44;25.90;43.90
41290;DHT22;36117;46.680;11.154;2022-10-31T13:57:31;25.80;45.60
41290;DHT22;36117;46.680;11.154;2022-10-31T14:02:47;25.40;46.00
41290;DHT22;36117;46.680;11.154;2022-10-31T14:07:55;25.20;46.50
41290;DHT22;36117;46.680;11.154;2022-10-31T14:10:36;25.10;46.60
41290;DHT22;36117;46.680;11.154;2022-10-31T14:13:21;25.20;46.20
41290;DHT22;36117;46.680;11.154;2022-10-31T14:18:33;25.10;46.90
41290;DHT22;36117;46.680;11.154;2022-10-31T14:21:00;25.10;47.10
41290;DHT22;36117;46.680;11.154;2022-10-31T14:23:34;25.10;47.50
41290;DHT22;36117;46.680;11.154;2022-10-31T14:26:20;24.80;47.30
41290;DHT22;36117;46.680;11.154;2022-10-31T14:28:47;24.90;47.50
41290;DHT22;36117;46.680;11.154;2022-10-31T14:31:32;24.90;47.30
41290;DHT22;36117;46.680;11.154;2022-10-31T14:34:05;24.90;47.50
41290;DHT22;36117;46.680;11.154;2022-10-31T14:42:13;24.70;47.90
41290;DHT22;36117;46.680;11.154;2022-10-31T14:53:02;24.50;48.00
41290;DHT22;36117;46.680;11.154;2022-10-31T14:55:29;24.40;47.90
41290;DHT22;36117;46.680;11.154;2022-10-31T14:58:02;24.40;48.20
41290;DHT22;36117;46.680;11.154;2022-10-31T15:00:32;24.30;48.50
41290;DHT22;36117;46.680;11.154;2022-10-31T15:05:26;24.40;48.50
41290;DHT22;36117;46.680;11.154;2022-10-31T15:07:57;24.40;48.60
41290;DHT22;36117;46.680;11.154;2022-10-31T15:13:19;24.20;51.00
41290;DHT22;36117;46.680;11.154;2022-10-31T15:15:42;24.30;51.40
41290;DHT22;36117;46.680;11.154;2022-10-31T15:18:16;24.10;51.70
41290;DHT22;36117;46.680;11.154;2022-10-31T15:20:44;23.90;51.70
41290;DHT22;36117;46.680;11.154;2022-10-31T15:23:15;23.90;52.20
41290;DHT22;36117;46.680;11.154;2022-10-31T15:25:41;23.90;52.60
41290;DHT22;36117;46.680;11.154;2022-10-31T15:28:22;24.00;52.80
41290;DHT22;36117;46.680;11.154;2022-10-31T15:31:00;23.80;52.60
41290;DHT22;36117;46.680;11.154;2022-10-31T15:33:31;23.70;52.90
41290;DHT22;36117;46.680;11.154;2022-10-31T15:36:05;23.90;52.50
41290;DHT22;36117;46.680;11.154;2022-10-31T15:38:30;23.80;52.30
41290;DHT22;36117;46.680;11.154;2022-10-31T15:41:04;23.90;52.50
41290;DHT22;36117;46.680;11.154;2022-10-31T15:43:35;23.70;53.50
41290;DHT22;36117;46.680;11.154;2022-10-31T15:46:03;23.80;54.30
41290;DHT22;36117;46.680;11.154;2022-10-31T15:48:29;23.60;54.20
41290;DHT22;36117;46.680;11.154;2022-10-31T15:51:00;23.50;55.80
41290;DHT22;36117;46.680;11.154;2022-10-31T15:53:48;23.40;56.00
41290;DHT22;36117;46.680;11.154;2022-10-31T15:56:29;23.40;56.20
41290;DHT22;36117;46.680;11.154;2022-10-31T15:58:58;23.30;56.20
41290;DHT22;36117;46.680;11.154;2022-10-31T16:01:24;23.10;56.50
41290;DHT22;36117;46.680;11.154;2022-10-31T16:06:34;22.90;57.70
41290;DHT22;36117;46.680;11.154;2022-10-31T16:09:01;22.80;57.90
41290;DHT22;36117;46.680;11.154;2022-10-31T16:11:36;22.60;57.90
41290;DHT22;36117;46.680;11.154;2022-10-31T16:16:48;21.70;63.70
41290;DHT22;36117;46.680;11.154;2022-10-31T16:21:46;21.30;66.80
41290;DHT22;36117;46.680;11.154;2022-10-31T16:24:17;21.40;66.00
41290;DHT22;36117;46.680;11.154;2022-10-31T16:26:52;21.30;65.30
41290;DHT22;36117;46.680;11.154;2022-10-31T16:29:32;21.30;67.70
41290;DHT22;36117;46.680;11.154;2022-10-31T16:31:58;21.10;68.90
41290;DHT22;36117;46.680;11.154;2022-10-31T16:34:24;20.90;69.60
41290;DHT22;36117;46.680;11.154;2022-10-31T16:36:50;20.90;68.10
41290;DHT22;36117;46.680;11.154;2022-10-31T16:39:16;20.80;67.10
41290;DHT22;36117;46.680;11.154;2022-10-31T16:41:48;20.60;67.20
41290;DHT22;36117;46.680;11.154;2022-10-31T16:44:26;20.40;68.40
41290;DHT22;36117;46.680;11.154;2022-10-31T16:47:11;20.20;68.90
41290;DHT22;36117;46.680;11.154;2022-10-31T16:49:38;20.40;69.70
41290;DHT22;36117;46.680;11.154;2022-10-31T16:52:05;20.40;69.20
41290;DHT22;36117;46.680;11.154;2022-10-31T16:54:31;20.50;68.40
41290;DHT22;36117;46.680;11.154;2022-10-31T16:56:58;20.50;68.10
41290;DHT22;36117;46.680;11.154;2022-10-31T16:59:24;20.40;69.10
41290;DHT22;36117;46.680;11.154;2022-10-31T17:01:50;20.40;68.40
41290;DHT22;36117;46.680;11.154;2022-10-31T17:04:15;20.50;67.10
41290;DHT22;36117;46.680;11.154;2022-10-31T17:06:42;20.50;67.30
41290;DHT22;36117;46.680;11.154;2022-10-31T17:09:08;20.50;67.30
41290;DHT22;36117;46.680;11.154;2022-10-31T17:11:34;20.60;67.90
41290;DHT22;36117;46.680;11.154;2022-10-31T17:14:00;20.50;69.70
41290;DHT22;36117;46.680;11.154;2022-10-31T17:16:26;20.00;71.40
41290;DHT22;36117;46.680;11.154;2022-10-31T17:18:52;19.70;73.20
41290;DHT22;36117;46.680;11.154;2022-10-31T17:21:22;19.50;74.30
41290;DHT22;36117;46.680;11.154;2022-10-31T17:23:49;19.10;75.20
41290;DHT22;36117;46.680;11.154;2022-10-31T17:26:15;18.80;75.50
41290;DHT22;36117;46.680;11.154;2022-10-31T17:28:41;18.90;76.10
41290;DHT22;36117;46.680;11.154;2022-10-31T17:31:23;18.70;75.00
41290;DHT22;36117;46.680;11.154;2022-10-31T17:33:50;18.70;74.40
41290;DHT22;36117;46.680;11.154;2022-10-31T17:36:19;18.70;75.10
41290;DHT22;36117;46.680;11.154;2022-10-31T17:38:44;18.60;75.60
41290;DHT22;36117;46.680;11.154;2022-10-31T17:41:10;18.70;75.00
41290;DHT22;36117;46.680;11.154;2022-10-31T17:43:36;18.90;74.20
41290;DHT22;36117;46.680;11.154;2022-10-31T17:46:02;18.90;73.80
41290;DHT22;36117;46.680;11.154;2022-10-31T17:48:28;18.80;73.80
41290;DHT22;36117;46.680;11.154;2022-10-31T17:50:53;19.10;72.30
41290;DHT22;36117;46.680;11.154;2022-10-31T17:53:19;19.30;71.00
41290;DHT22;36117;46.680;11.154;2022-10-31T17:55:45;19.40;70.40
41290;DHT22;36117;46.680;11.154;2022-10-31T17:58:11;19.50;70.40
41290;DHT22;36117;46.680;11.154;2022-10-31T18:00:39;19.10;70.70
41290;DHT22;36117;46.680;11.154;2022-10-31T18:03:08;18.80;72.90
41290;DHT22;36117;46.680;11.154;2022-10-31T18:05:33;19.00;72.40
41290;DHT22;36117;46.680;11.154;2022-10-31T18:07:59;18.50;74.30
41290;DHT22;36117;46.680;11.154;2022-10-31T18:10:25;18.40;76.00
41290;DHT22;36117;46.680;11.154;2022-10-31T18:12:51;18.10;76.50
41290;DHT22;36117;46.680;11.154;2022-10-31T18:15:17;18.10;76.90
41290;DHT22;36117;46.680;11.154;2022-10-31T18:17:43;17.90;77.00